DLH19L EDDM-LBSF
Flight info
| Callsign | DLH19L |
|---|---|
| Flight time | 1h 34m |
| Altitude | 35000 |
| Route | ROTAX4Q ROTAX L603 LATLO DCT OBEDI DCT VAMET DCT RASIN DCT TUVAR DCT TPL DCT NISVA |
| Aircraft | A321/M-SDE3FGHIJ1J5J6J7M1RWXY/LB1 |
Departure
| Time | 2026-05-04 14:56 |
|---|---|
| Airport | Munich Airport (EDDM) |
Arrival
| Time | 2026-05-04 16:31 |
|---|---|
| Airport | Sofia Airport (LBSF) |
| Time | Latitude | Longitude | Altitude | Speed | Heading |
|---|---|---|---|---|---|
| 2026-05-04 14:26 | 48.35160 | 11.79343 | 1467 ft | 0 kts | 263° |
| 2026-05-04 14:43 | 48.35161 | 11.79360 | 1467 ft | 2 kts | 261° |
| 2026-05-04 14:43 | 48.35163 | 11.79385 | 1460 ft | 2 kts | 263° |
| 2026-05-04 14:43 | 48.35165 | 11.79409 | 1461 ft | 2 kts | 262° |
| 2026-05-04 14:43 | 48.35168 | 11.79433 | 1461 ft | 2 kts | 259° |
| 2026-05-04 14:44 | 48.35171 | 11.79457 | 1459 ft | 2 kts | 256° |
| 2026-05-04 14:44 | 48.35175 | 11.79481 | 1463 ft | 2 kts | 243° |
| 2026-05-04 14:44 | 48.35186 | 11.79500 | 1457 ft | 2 kts | 182° |
| 2026-05-04 14:44 | 48.35193 | 11.79500 | 1458 ft | 0 kts | 175° |
| 2026-05-04 14:46 | 48.35191 | 11.79500 | 1458 ft | 1 kts | 175° |
| 2026-05-04 14:46 | 48.35181 | 11.79502 | 1462 ft | 2 kts | 175° |
| 2026-05-04 14:47 | 48.35160 | 11.79505 | 1463 ft | 4 kts | 174° |
| 2026-05-04 14:47 | 48.35124 | 11.79511 | 1463 ft | 7 kts | 173° |
| 2026-05-04 14:47 | 48.35070 | 11.79521 | 1459 ft | 9 kts | 173° |
| 2026-05-04 14:47 | 48.35006 | 11.79532 | 1464 ft | 10 kts | 173° |
| 2026-05-04 14:48 | 48.34933 | 11.79545 | 1467 ft | 11 kts | 173° |
| 2026-05-04 14:48 | 48.34851 | 11.79559 | 1460 ft | 12 kts | 173° |
| 2026-05-04 14:48 | 48.34785 | 11.79503 | 1466 ft | 13 kts | 258° |
| 2026-05-04 14:48 | 48.34774 | 11.79355 | 1467 ft | 16 kts | 263° |
| 2026-05-04 14:49 | 48.34759 | 11.79165 | 1467 ft | 21 kts | 263° |
| 2026-05-04 14:49 | 48.34741 | 11.78930 | 1467 ft | 23 kts | 263° |
| 2026-05-04 14:49 | 48.34722 | 11.78685 | 1458 ft | 24 kts | 263° |
| 2026-05-04 14:49 | 48.34703 | 11.78432 | 1465 ft | 25 kts | 263° |
| 2026-05-04 14:50 | 48.34684 | 11.78172 | 1467 ft | 25 kts | 264° |
| 2026-05-04 14:50 | 48.34665 | 11.77906 | 1459 ft | 26 kts | 263° |
| 2026-05-04 14:50 | 48.34643 | 11.77634 | 1464 ft | 26 kts | 263° |
| 2026-05-04 14:50 | 48.34621 | 11.77357 | 1457 ft | 27 kts | 263° |
| 2026-05-04 14:51 | 48.34599 | 11.77074 | 1466 ft | 27 kts | 263° |
| 2026-05-04 14:51 | 48.34577 | 11.76786 | 1464 ft | 28 kts | 263° |
| 2026-05-04 14:51 | 48.34555 | 11.76494 | 1464 ft | 28 kts | 264° |
| 2026-05-04 14:51 | 48.34532 | 11.76199 | 1466 ft | 29 kts | 262° |
| 2026-05-04 14:52 | 48.34508 | 11.75898 | 1457 ft | 29 kts | 264° |
| 2026-05-04 14:52 | 48.34486 | 11.75595 | 1461 ft | 29 kts | 263° |
| 2026-05-04 14:52 | 48.34468 | 11.75364 | 1466 ft | 12 kts | 263° |
| 2026-05-04 14:52 | 48.34444 | 11.75240 | 1457 ft | 13 kts | 224° |
| 2026-05-04 14:53 | 48.34355 | 11.75219 | 1466 ft | 14 kts | 175° |
| 2026-05-04 14:53 | 48.34259 | 11.75235 | 1467 ft | 8 kts | 173° |
| 2026-05-04 14:53 | 48.34204 | 11.75245 | 1465 ft | 8 kts | 173° |
| 2026-05-04 14:53 | 48.34149 | 11.75255 | 1469 ft | 7 kts | 173° |
| 2026-05-04 14:54 | 48.34129 | 11.75258 | 1464 ft | 3 kts | 173° |
| 2026-05-04 14:54 | 48.34131 | 11.75258 | 1463 ft | 0 kts | 173° |
| 2026-05-04 14:54 | 48.34119 | 11.75260 | 1468 ft | 5 kts | 173° |
| 2026-05-04 14:55 | 48.34084 | 11.75331 | 1473 ft | 11 kts | 89° |
| 2026-05-04 14:55 | 48.34086 | 11.75354 | 1474 ft | 0 kts | 81° |
| 2026-05-04 14:55 | 48.34094 | 11.75465 | 1474 ft | 41 kts | 83° |
| 2026-05-04 14:55 | 48.34157 | 11.76270 | 1470 ft | 112 kts | 84° |
| 2026-05-04 14:56 | 48.34267 | 11.77735 | 1477 ft | 167 kts | 82° |
| 2026-05-04 14:56 | 48.34373 | 11.79469 | 2202 ft | 161 kts | 84° |
| 2026-05-04 14:56 | 48.34491 | 11.81144 | 2903 ft | 162 kts | 84° |
| 2026-05-04 14:56 | 48.34624 | 11.82839 | 3458 ft | 171 kts | 84° |
| 2026-05-04 14:57 | 48.34775 | 11.84731 | 3753 ft | 194 kts | 83° |
| 2026-05-04 14:57 | 48.34944 | 11.86854 | 4011 ft | 215 kts | 83° |
| 2026-05-04 14:57 | 48.35131 | 11.89216 | 4261 ft | 240 kts | 83° |
| 2026-05-04 14:57 | 48.35328 | 11.91754 | 4858 ft | 248 kts | 85° |
| 2026-05-04 14:58 | 48.35128 | 11.94332 | 5463 ft | 257 kts | 110° |
| 2026-05-04 14:58 | 48.34425 | 11.96893 | 5933 ft | 271 kts | 114° |
| 2026-05-04 14:58 | 48.33650 | 11.99501 | 6638 ft | 275 kts | 116° |
| 2026-05-04 14:58 | 48.33050 | 12.01177 | 7100 ft | 276 kts | 127° |
| 2026-05-04 14:59 | 48.31046 | 12.03888 | 7471 ft | 303 kts | 146° |
| 2026-05-04 14:59 | 48.29261 | 12.05752 | 7862 ft | 318 kts | 146° |
| 2026-05-04 14:59 | 48.25514 | 12.09623 | 8873 ft | 335 kts | 147° |
| 2026-05-04 15:00 | 48.23589 | 12.11619 | 9384 ft | 338 kts | 147° |
| 2026-05-04 15:00 | 48.21645 | 12.13639 | 9903 ft | 340 kts | 148° |
| 2026-05-04 15:00 | 48.19701 | 12.15659 | 10380 ft | 342 kts | 148° |
| 2026-05-04 15:01 | 48.15737 | 12.19778 | 11368 ft | 353 kts | 148° |
| 2026-05-04 15:01 | 48.14390 | 12.21178 | 11691 ft | 358 kts | 148° |
| 2026-05-04 15:01 | 48.12303 | 12.23345 | 12201 ft | 362 kts | 148° |
| 2026-05-04 15:01 | 48.10229 | 12.25499 | 12718 ft | 365 kts | 148° |
| 2026-05-04 15:02 | 48.08133 | 12.27672 | 13247 ft | 368 kts | 148° |
| 2026-05-04 15:02 | 48.06028 | 12.29852 | 13757 ft | 370 kts | 148° |
| 2026-05-04 15:02 | 48.03905 | 12.32050 | 14245 ft | 373 kts | 148° |
| 2026-05-04 15:02 | 48.01763 | 12.34262 | 14711 ft | 376 kts | 148° |
| 2026-05-04 15:03 | 47.99607 | 12.36481 | 14894 ft | 378 kts | 148° |
| 2026-05-04 15:03 | 47.97475 | 12.38802 | 14935 ft | 380 kts | 142° |
| 2026-05-04 15:03 | 47.95528 | 12.41480 | 14929 ft | 381 kts | 140° |
| 2026-05-04 15:03 | 47.93600 | 12.44185 | 14934 ft | 381 kts | 140° |
| 2026-05-04 15:04 | 47.91663 | 12.46895 | 14927 ft | 381 kts | 140° |
| 2026-05-04 15:04 | 47.89706 | 12.49631 | 14931 ft | 381 kts | 140° |
| 2026-05-04 15:04 | 47.87745 | 12.52361 | 14920 ft | 381 kts | 140° |
| 2026-05-04 15:04 | 47.85803 | 12.55054 | 14928 ft | 381 kts | 140° |
| 2026-05-04 15:05 | 47.83856 | 12.57751 | 14926 ft | 381 kts | 140° |
| 2026-05-04 15:05 | 47.81897 | 12.60472 | 14922 ft | 381 kts | 140° |
| 2026-05-04 15:05 | 47.79997 | 12.63208 | 14923 ft | 381 kts | 138° |
| 2026-05-04 15:05 | 47.78128 | 12.65997 | 14928 ft | 381 kts | 137° |
| 2026-05-04 15:06 | 47.76273 | 12.68812 | 14927 ft | 381 kts | 137° |
| 2026-05-04 15:06 | 47.74425 | 12.71621 | 14906 ft | 381 kts | 137° |
| 2026-05-04 15:06 | 47.72540 | 12.74471 | 14916 ft | 381 kts | 137° |
| 2026-05-04 15:07 | 47.68796 | 12.80064 | 15517 ft | 383 kts | 137° |
| 2026-05-04 15:07 | 47.66910 | 12.82864 | 15998 ft | 386 kts | 137° |
| 2026-05-04 15:07 | 47.65000 | 12.85696 | 16382 ft | 389 kts | 137° |
| 2026-05-04 15:07 | 47.63074 | 12.88546 | 16892 ft | 392 kts | 137° |
| 2026-05-04 15:08 | 47.61138 | 12.91407 | 17393 ft | 395 kts | 137° |
| 2026-05-04 15:08 | 47.59183 | 12.94291 | 17896 ft | 398 kts | 137° |
| 2026-05-04 15:08 | 47.57217 | 12.97191 | 18370 ft | 400 kts | 137° |
| 2026-05-04 15:08 | 47.55233 | 13.00108 | 18771 ft | 403 kts | 137° |
| 2026-05-04 15:09 | 47.53234 | 13.03047 | 19170 ft | 406 kts | 137° |
| 2026-05-04 15:09 | 47.51227 | 13.05998 | 19533 ft | 409 kts | 137° |
| 2026-05-04 15:09 | 47.49222 | 13.08949 | 19906 ft | 413 kts | 137° |
| 2026-05-04 15:10 | 47.45111 | 13.14984 | 20760 ft | 419 kts | 137° |
| 2026-05-04 15:10 | 47.43000 | 13.18074 | 21195 ft | 422 kts | 137° |
| 2026-05-04 15:10 | 47.38801 | 13.24217 | 21964 ft | 429 kts | 137° |
| 2026-05-04 15:11 | 47.36675 | 13.27318 | 22375 ft | 432 kts | 137° |
| 2026-05-04 15:11 | 47.34508 | 13.30604 | 22738 ft | 436 kts | 132° |
| 2026-05-04 15:11 | 47.32720 | 13.34226 | 23095 ft | 441 kts | 122° |
| 2026-05-04 15:11 | 47.31341 | 13.38296 | 23427 ft | 446 kts | 113° |
| 2026-05-04 15:12 | 47.30209 | 13.42562 | 23758 ft | 449 kts | 112° |
| 2026-05-04 15:12 | 47.29067 | 13.46845 | 24108 ft | 450 kts | 112° |
| 2026-05-04 15:12 | 47.27911 | 13.51138 | 24423 ft | 452 kts | 113° |
| 2026-05-04 15:12 | 47.26735 | 13.55456 | 24743 ft | 454 kts | 113° |
| 2026-05-04 15:13 | 47.25570 | 13.59711 | 25065 ft | 456 kts | 113° |
| 2026-05-04 15:13 | 47.24379 | 13.64066 | 25391 ft | 459 kts | 113° |
| 2026-05-04 15:13 | 47.23188 | 13.68431 | 25748 ft | 461 kts | 113° |
| 2026-05-04 15:13 | 47.21995 | 13.72802 | 26055 ft | 462 kts | 113° |
| 2026-05-04 15:14 | 47.20794 | 13.77200 | 26364 ft | 464 kts | 112° |
| 2026-05-04 15:14 | 47.19581 | 13.81633 | 26579 ft | 468 kts | 114° |
| 2026-05-04 15:14 | 47.18362 | 13.86081 | 26834 ft | 471 kts | 112° |
| 2026-05-04 15:14 | 47.17134 | 13.90558 | 27124 ft | 472 kts | 113° |
| 2026-05-04 15:15 | 47.15903 | 13.95031 | 27406 ft | 474 kts | 112° |
| 2026-05-04 15:15 | 47.14679 | 13.99472 | 27622 ft | 477 kts | 113° |
| 2026-05-04 15:15 | 47.13431 | 14.03988 | 27868 ft | 478 kts | 113° |
| 2026-05-04 15:16 | 47.10912 | 14.13047 | 28354 ft | 480 kts | 114° |
| 2026-05-04 15:16 | 47.09645 | 14.17592 | 28592 ft | 482 kts | 113° |
| 2026-05-04 15:16 | 47.07111 | 14.26670 | 29268 ft | 479 kts | 112° |
| 2026-05-04 15:17 | 47.05851 | 14.31189 | 29539 ft | 480 kts | 114° |
| 2026-05-04 15:17 | 47.03316 | 14.40237 | 30223 ft | 478 kts | 114° |
| 2026-05-04 15:17 | 47.02053 | 14.44725 | 30466 ft | 478 kts | 114° |
| 2026-05-04 15:18 | 47.00782 | 14.49232 | 30714 ft | 478 kts | 114° |
| 2026-05-04 15:18 | 46.99511 | 14.53729 | 31010 ft | 476 kts | 113° |
| 2026-05-04 15:18 | 46.98246 | 14.58200 | 31308 ft | 475 kts | 113° |
| 2026-05-04 15:19 | 46.95704 | 14.67146 | 31846 ft | 475 kts | 113° |
| 2026-05-04 15:19 | 46.94439 | 14.71603 | 32170 ft | 474 kts | 114° |
| 2026-05-04 15:19 | 46.91929 | 14.80434 | 32683 ft | 474 kts | 114° |
| 2026-05-04 15:20 | 46.90661 | 14.84872 | 32974 ft | 472 kts | 114° |
| 2026-05-04 15:20 | 46.89386 | 14.89314 | 33251 ft | 472 kts | 113° |
| 2026-05-04 15:20 | 46.88117 | 14.93722 | 33516 ft | 471 kts | 113° |
| 2026-05-04 15:20 | 46.86843 | 14.98140 | 33807 ft | 471 kts | 113° |
| 2026-05-04 15:21 | 46.85574 | 15.02539 | 34068 ft | 470 kts | 113° |
| 2026-05-04 15:21 | 46.84301 | 15.06941 | 34287 ft | 470 kts | 113° |
| 2026-05-04 15:21 | 46.81763 | 15.15714 | 34740 ft | 469 kts | 114° |
| 2026-05-04 15:22 | 46.80491 | 15.20094 | 34933 ft | 469 kts | 114° |
| 2026-05-04 15:22 | 46.76344 | 15.32905 | 34984 ft | 468 kts | 125° |
| 2026-05-04 15:23 | 46.72558 | 15.40646 | 34989 ft | 470 kts | 127° |
| 2026-05-04 15:23 | 46.68757 | 15.48391 | 35004 ft | 469 kts | 126° |
| 2026-05-04 15:24 | 46.61189 | 15.63792 | 35008 ft | 469 kts | 126° |
| 2026-05-04 15:25 | 46.57383 | 15.71503 | 35018 ft | 469 kts | 126° |
| 2026-05-04 15:26 | 46.51659 | 15.83044 | 35023 ft | 470 kts | 126° |
| 2026-05-04 15:26 | 46.45913 | 15.94567 | 35026 ft | 470 kts | 127° |
| 2026-05-04 15:27 | 46.40165 | 16.06058 | 35039 ft | 470 kts | 127° |
| 2026-05-04 15:28 | 46.34409 | 16.17543 | 35046 ft | 470 kts | 127° |
| 2026-05-04 15:29 | 46.28654 | 16.28947 | 35059 ft | 470 kts | 126° |
| 2026-05-04 15:30 | 46.15145 | 16.55571 | 35059 ft | 470 kts | 126° |
| 2026-05-04 15:31 | 46.09368 | 16.66900 | 35045 ft | 470 kts | 123° |
| 2026-05-04 15:32 | 46.01403 | 16.87367 | 35068 ft | 470 kts | 118° |
| 2026-05-04 15:34 | 45.93423 | 17.07853 | 35062 ft | 470 kts | 118° |
| 2026-05-04 15:34 | 45.88634 | 17.20129 | 35079 ft | 470 kts | 118° |
| 2026-05-04 15:35 | 45.83850 | 17.32332 | 35080 ft | 469 kts | 118° |
| 2026-05-04 15:36 | 45.79033 | 17.44542 | 35067 ft | 469 kts | 118° |
| 2026-05-04 15:36 | 45.75819 | 17.52680 | 35063 ft | 469 kts | 118° |
| 2026-05-04 15:37 | 45.72599 | 17.60805 | 35089 ft | 469 kts | 118° |
| 2026-05-04 15:37 | 45.69400 | 17.68857 | 35074 ft | 469 kts | 118° |
| 2026-05-04 15:38 | 45.66166 | 17.76953 | 35072 ft | 469 kts | 118° |
| 2026-05-04 15:38 | 45.62930 | 17.85041 | 35075 ft | 468 kts | 118° |
| 2026-05-04 15:39 | 45.59692 | 17.93105 | 35091 ft | 468 kts | 118° |
| 2026-05-04 15:40 | 45.54816 | 18.05174 | 35087 ft | 467 kts | 118° |
| 2026-05-04 15:40 | 45.51602 | 18.13147 | 35082 ft | 467 kts | 118° |
| 2026-05-04 15:41 | 45.48359 | 18.21176 | 35083 ft | 467 kts | 118° |
| 2026-05-04 15:41 | 45.45107 | 18.29190 | 35088 ft | 467 kts | 118° |
| 2026-05-04 15:42 | 45.41837 | 18.37191 | 35086 ft | 467 kts | 118° |
| 2026-05-04 15:42 | 45.38569 | 18.45169 | 35089 ft | 467 kts | 118° |
| 2026-05-04 15:43 | 45.35303 | 18.53156 | 35101 ft | 467 kts | 118° |
| 2026-05-04 15:43 | 45.32053 | 18.61080 | 35098 ft | 467 kts | 118° |
| 2026-05-04 15:44 | 45.28767 | 18.69035 | 35099 ft | 467 kts | 118° |
| 2026-05-04 15:44 | 45.25473 | 18.76973 | 35088 ft | 467 kts | 118° |
| 2026-05-04 15:45 | 45.22182 | 18.84915 | 35098 ft | 467 kts | 118° |
| 2026-05-04 15:45 | 45.18889 | 18.92848 | 35102 ft | 467 kts | 118° |
| 2026-05-04 15:46 | 45.15602 | 19.00723 | 35102 ft | 467 kts | 118° |
| 2026-05-04 15:46 | 45.12187 | 19.08538 | 35104 ft | 469 kts | 125° |
| 2026-05-04 15:47 | 45.08088 | 19.15727 | 35103 ft | 469 kts | 127° |
| 2026-05-04 15:47 | 45.03971 | 19.22888 | 35104 ft | 469 kts | 127° |
| 2026-05-04 15:48 | 44.99851 | 19.30033 | 35103 ft | 469 kts | 127° |
| 2026-05-04 15:48 | 44.93691 | 19.40688 | 35099 ft | 469 kts | 127° |
| 2026-05-04 15:49 | 44.89554 | 19.47827 | 35114 ft | 470 kts | 127° |
| 2026-05-04 15:49 | 44.85418 | 19.54944 | 35099 ft | 470 kts | 127° |
| 2026-05-04 15:50 | 44.81273 | 19.62059 | 35107 ft | 470 kts | 127° |
| 2026-05-04 15:50 | 44.77118 | 19.69161 | 35110 ft | 470 kts | 127° |
| 2026-05-04 15:51 | 44.72958 | 19.76251 | 35113 ft | 470 kts | 127° |
| 2026-05-04 15:51 | 44.68789 | 19.83331 | 35109 ft | 470 kts | 127° |
| 2026-05-04 15:52 | 44.64648 | 19.90353 | 35112 ft | 470 kts | 127° |
| 2026-05-04 15:52 | 44.60483 | 19.97421 | 35109 ft | 470 kts | 127° |
| 2026-05-04 15:53 | 44.56308 | 20.04486 | 35118 ft | 470 kts | 127° |
| 2026-05-04 15:53 | 44.52128 | 20.11538 | 35114 ft | 471 kts | 127° |
| 2026-05-04 15:54 | 44.47933 | 20.18581 | 35109 ft | 471 kts | 127° |
| 2026-05-04 15:54 | 44.44438 | 20.24438 | 35115 ft | 471 kts | 127° |
| 2026-05-04 15:55 | 44.40239 | 20.31472 | 35132 ft | 471 kts | 127° |
| 2026-05-04 15:55 | 44.36026 | 20.38506 | 35112 ft | 472 kts | 127° |
| 2026-05-04 15:56 | 44.31804 | 20.45526 | 35116 ft | 472 kts | 127° |
| 2026-05-04 15:56 | 44.27582 | 20.52543 | 35115 ft | 472 kts | 127° |
| 2026-05-04 15:57 | 44.23356 | 20.59545 | 35121 ft | 472 kts | 127° |
| 2026-05-04 15:57 | 44.19133 | 20.66534 | 35123 ft | 471 kts | 127° |
| 2026-05-04 15:58 | 44.14912 | 20.73517 | 35122 ft | 471 kts | 127° |
| 2026-05-04 15:58 | 44.10820 | 20.80544 | 35123 ft | 470 kts | 124° |
| 2026-05-04 15:59 | 44.06885 | 20.87797 | 35134 ft | 469 kts | 123° |
| 2026-05-04 15:59 | 44.02981 | 20.95030 | 35130 ft | 468 kts | 124° |
| 2026-05-04 16:00 | 43.99015 | 21.02223 | 35125 ft | 468 kts | 124° |
| 2026-05-04 16:00 | 43.95027 | 21.09365 | 35127 ft | 468 kts | 124° |
| 2026-05-04 16:01 | 43.91031 | 21.16502 | 35144 ft | 469 kts | 124° |
| 2026-05-04 16:01 | 43.87032 | 21.23649 | 35133 ft | 469 kts | 124° |
| 2026-05-04 16:02 | 43.83066 | 21.30739 | 35130 ft | 469 kts | 124° |
| 2026-05-04 16:03 | 43.77060 | 21.41429 | 35145 ft | 468 kts | 125° |
| 2026-05-04 16:03 | 43.73058 | 21.48523 | 35143 ft | 468 kts | 125° |
| 2026-05-04 16:04 | 43.69049 | 21.55609 | 35130 ft | 467 kts | 125° |
| 2026-05-04 16:04 | 43.63031 | 21.66223 | 35151 ft | 468 kts | 125° |
| 2026-05-04 16:05 | 43.59020 | 21.73279 | 35133 ft | 467 kts | 125° |
| 2026-05-04 16:06 | 43.53012 | 21.83820 | 35120 ft | 466 kts | 125° |
| 2026-05-04 16:07 | 43.44993 | 21.97808 | 35115 ft | 465 kts | 125° |
| 2026-05-04 16:08 | 43.36960 | 22.11763 | 35107 ft | 465 kts | 125° |
| 2026-05-04 16:08 | 43.30927 | 22.22203 | 34872 ft | 463 kts | 126° |
| 2026-05-04 16:09 | 43.26905 | 22.29123 | 33455 ft | 466 kts | 126° |
| 2026-05-04 16:09 | 43.22853 | 22.36092 | 31664 ft | 468 kts | 127° |
| 2026-05-04 16:10 | 43.18781 | 22.43093 | 29680 ft | 472 kts | 127° |
| 2026-05-04 16:11 | 43.12659 | 22.53585 | 26485 ft | 470 kts | 129° |
| 2026-05-04 16:11 | 43.10641 | 22.57035 | 26009 ft | 458 kts | 129° |
| 2026-05-04 16:12 | 43.04725 | 22.67122 | 24968 ft | 452 kts | 129° |
| 2026-05-04 16:12 | 42.98842 | 22.77097 | 23780 ft | 447 kts | 129° |
| 2026-05-04 16:13 | 42.95303 | 22.84017 | 22757 ft | 440 kts | 121° |
| 2026-05-04 16:13 | 42.92072 | 22.91015 | 21703 ft | 433 kts | 121° |
| 2026-05-04 16:14 | 42.89372 | 22.98172 | 20618 ft | 412 kts | 105° |
| 2026-05-04 16:14 | 42.88508 | 23.05522 | 20429 ft | 388 kts | 92° |
| 2026-05-04 16:15 | 42.87867 | 23.16318 | 19900 ft | 354 kts | 92° |
| 2026-05-04 16:16 | 42.86470 | 23.22076 | 19604 ft | 309 kts | 134° |
| 2026-05-04 16:16 | 42.80786 | 23.22078 | 18101 ft | 307 kts | 226° |
| 2026-05-04 16:17 | 42.79478 | 23.16915 | 17245 ft | 287 kts | 277° |
| 2026-05-04 16:18 | 42.79911 | 23.08890 | 16052 ft | 280 kts | 278° |
| 2026-05-04 16:18 | 42.80062 | 23.06257 | 15649 ft | 278 kts | 278° |
| 2026-05-04 16:19 | 42.80518 | 22.98415 | 14594 ft | 275 kts | 278° |
| 2026-05-04 16:19 | 42.80811 | 22.93237 | 13873 ft | 273 kts | 278° |
| 2026-05-04 16:20 | 42.81239 | 22.85561 | 12734 ft | 271 kts | 277° |
| 2026-05-04 16:20 | 42.80370 | 22.80732 | 11930 ft | 272 kts | 227° |
| 2026-05-04 16:21 | 42.75169 | 22.79303 | 10559 ft | 258 kts | 153° |
| 2026-05-04 16:22 | 42.73071 | 22.82709 | 9806 ft | 232 kts | 97° |
| 2026-05-04 16:22 | 42.72692 | 22.89114 | 8824 ft | 226 kts | 90° |
| 2026-05-04 16:23 | 42.72324 | 22.95450 | 7862 ft | 224 kts | 91° |
| 2026-05-04 16:24 | 42.71845 | 23.03906 | 6245 ft | 223 kts | 91° |
| 2026-05-04 16:25 | 42.71603 | 23.08088 | 5620 ft | 223 kts | 91° |
| 2026-05-04 16:26 | 42.71125 | 23.16455 | 4268 ft | 220 kts | 92° |
| 2026-05-04 16:26 | 42.70787 | 23.22277 | 4114 ft | 180 kts | 92° |
| 2026-05-04 16:27 | 42.70600 | 23.25495 | 3850 ft | 155 kts | 91° |
| 2026-05-04 16:28 | 42.70356 | 23.29694 | 3245 ft | 147 kts | 93° |
| 2026-05-04 16:28 | 42.70109 | 23.33831 | 2636 ft | 146 kts | 92° |
| 2026-05-04 16:29 | 42.69819 | 23.38817 | 1955 ft | 142 kts | 96° |
| 2026-05-04 16:30 | 42.69616 | 23.42202 | 1749 ft | 57 kts | 94° |
| 2026-05-04 16:31 | 42.69516 | 23.42685 | 1749 ft | 11 kts | 123° |
| 2026-05-04 16:31 | 42.69408 | 23.42579 | 1742 ft | 7 kts | 274° |
| 2026-05-04 16:32 | 42.69411 | 23.42524 | 1750 ft | 5 kts | 274° |
| 2026-05-04 16:33 | 42.69419 | 23.42370 | 1750 ft | 10 kts | 274° |
| 2026-05-04 16:33 | 42.69439 | 23.42062 | 1749 ft | 22 kts | 274° |
| 2026-05-04 16:34 | 42.69464 | 23.41644 | 1749 ft | 11 kts | 275° |
| 2026-05-04 16:34 | 42.69444 | 23.41542 | 1746 ft | 12 kts | 217° |
| 2026-05-04 16:35 | 42.69159 | 23.41565 | 1746 ft | 3 kts | 161° |
| 2026-05-04 16:35 | 42.69089 | 23.41513 | 1744 ft | 7 kts | 252° |
| 2026-05-04 16:36 | 42.69079 | 23.41473 | 1747 ft | 4 kts | 252° |
| 2026-05-04 16:36 | 42.69076 | 23.41458 | 1748 ft | 0 kts | 256° |